createdAt,value
2022-12-22T00:01:49.840Z,100.00
2022-12-22T00:07:15.498Z,100.00
2022-12-22T00:12:41.529Z,100.00
2022-12-22T00:18:06.554Z,100.00
2022-12-22T00:23:32.206Z,100.00
2022-12-22T00:28:57.335Z,100.00
2022-12-22T00:34:23.608Z,100.00
2022-12-22T00:39:51.338Z,100.00
2022-12-22T00:45:16.459Z,100.00
2022-12-22T00:50:46.387Z,100.00
2022-12-22T00:56:11.511Z,100.00
2022-12-22T01:01:36.527Z,100.00
2022-12-22T01:07:02.230Z,100.00
2022-12-22T01:12:33.629Z,100.00
2022-12-22T01:17:58.307Z,100.00
2022-12-22T01:23:27.567Z,100.00
2022-12-22T01:28:52.586Z,100.00
2022-12-22T01:34:17.797Z,100.00
2022-12-22T01:39:42.913Z,100.00
2022-12-22T01:45:07.722Z,100.00
2022-12-22T01:50:32.810Z,100.00
2022-12-22T01:55:58.065Z,100.00
2022-12-22T02:01:23.190Z,100.00
2022-12-22T02:07:00.021Z,100.00
2022-12-22T02:12:38.033Z,100.00
2022-12-22T02:18:14.391Z,100.00
2022-12-22T02:23:54.484Z,100.00
2022-12-22T02:29:20.699Z,100.00
2022-12-22T02:34:45.625Z,100.00
2022-12-22T02:40:20.525Z,100.00
2022-12-22T02:45:52.446Z,100.00
2022-12-22T02:51:24.025Z,100.00
2022-12-22T02:56:49.693Z,100.00
2022-12-22T03:02:15.236Z,100.00
2022-12-22T03:07:40.208Z,100.00
2022-12-22T03:13:05.435Z,100.00
2022-12-22T03:18:32.584Z,100.00
2022-12-22T03:23:57.391Z,100.00
2022-12-22T03:29:04.596Z,100.00
2022-12-22T03:34:10.282Z,100.00
2022-12-22T03:39:17.664Z,100.00
2022-12-22T03:44:42.888Z,100.00
2022-12-22T03:49:50.301Z,100.00
2022-12-22T03:54:57.594Z,100.00
2022-12-22T04:00:06.037Z,100.00
2022-12-22T04:05:13.650Z,100.00
2022-12-22T04:10:38.959Z,100.00
2022-12-22T04:15:46.258Z,100.00
2022-12-22T04:20:53.465Z,100.00
2022-12-22T04:25:59.205Z,100.00
2022-12-22T04:31:06.813Z,100.00
2022-12-22T04:36:15.079Z,100.00
2022-12-22T04:41:22.690Z,100.00
2022-12-22T04:46:30.157Z,100.00
2022-12-22T04:51:37.615Z,100.00
2022-12-22T04:56:44.878Z,100.00
2022-12-22T05:01:50.555Z,100.00
2022-12-22T05:06:57.855Z,100.00
2022-12-22T05:12:24.322Z,100.00
2022-12-22T05:17:31.662Z,100.00
2022-12-22T05:22:37.467Z,100.00
2022-12-22T05:27:45.084Z,100.00
2022-12-22T05:32:52.500Z,100.00
2022-12-22T05:38:00.124Z,100.00
2022-12-22T05:43:07.396Z,100.00
2022-12-22T05:48:13.368Z,100.00
2022-12-22T05:53:20.891Z,100.00
2022-12-22T05:58:28.273Z,100.00
2022-12-22T06:03:36.104Z,100.00
2022-12-22T06:08:43.811Z,100.00
2022-12-22T06:13:51.323Z,100.00
2022-12-22T06:18:58.815Z,100.00
2022-12-22T06:24:06.894Z,100.00
2022-12-22T06:29:14.453Z,100.00
2022-12-22T06:34:22.399Z,100.00
2022-12-22T06:39:29.656Z,100.00
2022-12-22T06:44:35.219Z,100.00
2022-12-22T06:49:42.464Z,100.00
2022-12-22T06:54:47.986Z,100.00
2022-12-22T06:59:57.926Z,100.00
2022-12-22T07:05:06.117Z,100.00
2022-12-22T07:10:14.608Z,100.00
2022-12-22T07:15:22.210Z,100.00
2022-12-22T07:20:29.518Z,100.00
2022-12-22T07:25:35.281Z,100.00
2022-12-22T07:30:43.100Z,100.00
2022-12-22T07:35:50.501Z,100.00
2022-12-22T07:41:05.305Z,100.00
2022-12-22T07:46:13.136Z,100.00
2022-12-22T07:51:20.486Z,100.00
2022-12-22T07:56:26.255Z,100.00
2022-12-22T08:01:34.288Z,100.00
2022-12-22T08:06:42.212Z,100.00
2022-12-22T08:12:04.127Z,100.00
2022-12-22T08:17:12.430Z,100.00
2022-12-22T08:22:23.823Z,100.00
2022-12-22T08:27:38.372Z,100.00
2022-12-22T08:39:44.850Z,100.00
2022-12-22T08:44:53.912Z,100.00
2022-12-22T08:50:01.542Z,100.00
2022-12-22T08:55:10.482Z,100.00
2022-12-22T09:00:20.346Z,100.00
2022-12-22T09:05:27.557Z,100.00
2022-12-22T09:10:37.452Z,99.90
2022-12-22T09:15:45.395Z,99.47
2022-12-22T09:20:57.709Z,99.51
2022-12-22T09:26:10.583Z,99.27
2022-12-22T09:31:18.489Z,99.11
2022-12-22T09:36:28.834Z,98.78
2022-12-22T09:41:40.529Z,98.33
2022-12-22T09:46:50.962Z,97.96
2022-12-22T09:52:02.489Z,97.73
2022-12-22T09:57:14.132Z,97.68
2022-12-22T10:02:30.042Z,97.20
2022-12-22T10:07:39.775Z,96.88
2022-12-22T10:12:51.329Z,97.06
2022-12-22T10:18:13.393Z,97.28
2022-12-22T10:23:34.577Z,96.92
2022-12-22T10:28:45.947Z,96.82
2022-12-22T10:33:54.901Z,96.41
2022-12-22T10:39:06.087Z,96.12
2022-12-22T10:44:23.450Z,96.02
2022-12-22T10:54:45.088Z,95.84
2022-12-22T10:59:54.280Z,95.74
2022-12-22T11:05:06.738Z,95.56
2022-12-22T11:10:24.930Z,95.59
2022-12-22T11:15:41.520Z,95.52
2022-12-22T11:21:00.636Z,95.61
2022-12-22T11:26:17.624Z,95.32
2022-12-22T11:31:53.234Z,95.13
2022-12-22T11:41:05.962Z,94.99
2022-12-22T11:46:22.882Z,95.01
2022-12-22T11:51:57.146Z,94.86
2022-12-22T11:57:12.556Z,94.68
2022-12-22T12:03:12.066Z,95.00
2022-12-22T12:08:29.611Z,94.91
2022-12-22T12:13:49.450Z,94.84
2022-12-22T12:19:13.362Z,94.99
2022-12-22T12:24:43.431Z,94.94
2022-12-22T12:30:36.501Z,95.08
2022-12-22T12:35:43.742Z,94.68
2022-12-22T12:40:56.994Z,94.82
2022-12-22T12:46:24.280Z,94.77
2022-12-22T12:51:51.110Z,94.45
2022-12-22T12:57:00.304Z,94.18
2022-12-22T13:02:28.852Z,93.69
2022-12-22T13:08:24.818Z,93.73
2022-12-22T13:13:50.227Z,93.86
2022-12-22T13:19:00.486Z,93.39
2022-12-22T13:24:24.628Z,93.44
2022-12-22T13:29:44.007Z,93.52
2022-12-22T13:40:32.194Z,93.09
2022-12-22T13:45:42.853Z,92.72
2022-12-22T13:50:53.045Z,92.88
2022-12-22T13:56:00.807Z,92.67
2022-12-22T14:01:19.063Z,93.06
2022-12-22T14:06:31.907Z,92.93
2022-12-22T14:11:40.288Z,93.10
2022-12-22T14:16:55.474Z,93.11
2022-12-22T14:22:10.300Z,93.24
2022-12-22T14:27:24.768Z,93.02
2022-12-22T14:32:44.970Z,93.17
2022-12-22T14:37:56.607Z,93.11
2022-12-22T14:43:07.013Z,93.13
2022-12-22T14:48:25.842Z,92.99
2022-12-22T14:53:44.653Z,93.04
2022-12-22T14:58:52.826Z,92.58
2022-12-22T15:04:07.976Z,92.84
2022-12-22T15:14:58.685Z,94.33
2022-12-22T15:20:07.093Z,94.64
2022-12-22T15:25:19.633Z,94.98
2022-12-22T15:30:32.953Z,94.86
2022-12-22T15:35:41.437Z,94.94
2022-12-22T15:40:49.303Z,95.41
2022-12-22T15:45:56.792Z,95.50
2022-12-22T15:51:05.735Z,95.63
2022-12-22T15:56:19.014Z,95.68
2022-12-22T16:01:26.184Z,95.92
2022-12-22T16:06:31.962Z,95.72
2022-12-22T16:11:40.462Z,96.12
2022-12-22T16:16:48.582Z,96.09
2022-12-22T16:21:56.035Z,96.25
2022-12-22T16:27:03.275Z,95.30
2022-12-22T16:32:24.188Z,94.95
2022-12-22T16:48:35.822Z,96.34
2022-12-22T16:53:43.257Z,96.82
2022-12-22T16:58:50.978Z,96.02
2022-12-22T17:04:01.569Z,95.32
2022-12-22T17:09:14.052Z,95.28
2022-12-22T17:14:29.459Z,96.10
2022-12-22T17:19:36.717Z,96.96
2022-12-22T17:24:42.200Z,97.44
2022-12-22T17:29:49.360Z,97.87
2022-12-22T17:34:56.406Z,98.02
2022-12-22T17:40:06.616Z,98.28
2022-12-22T17:45:19.078Z,98.36
2022-12-22T17:50:26.456Z,98.54
2022-12-22T17:56:07.366Z,99.14
2022-12-22T18:00:59.669Z,99.68
2022-12-22T18:06:10.372Z,100.00
2022-12-22T18:11:20.105Z,100.00
2022-12-22T18:16:25.858Z,100.00
2022-12-22T18:21:33.209Z,100.00
2022-12-22T18:26:38.642Z,99.66
2022-12-22T18:31:46.172Z,99.29
2022-12-22T18:36:53.463Z,99.08
2022-12-22T18:41:59.005Z,99.28
2022-12-22T18:47:06.452Z,99.77
2022-12-22T18:52:17.914Z,99.85
2022-12-22T18:57:25.329Z,99.29
2022-12-22T19:02:33.558Z,99.58
2022-12-22T19:07:40.778Z,99.98
2022-12-22T19:12:52.049Z,100.00
2022-12-22T19:17:59.640Z,99.71
2022-12-22T19:23:06.869Z,99.49
2022-12-22T19:28:17.057Z,99.34
2022-12-22T19:33:27.642Z,99.29
2022-12-22T19:38:38.272Z,99.25
2022-12-22T19:43:45.337Z,98.85
2022-12-22T19:48:50.938Z,98.94
2022-12-22T19:53:59.259Z,98.85
2022-12-22T19:59:09.069Z,98.60
2022-12-22T20:04:16.457Z,98.66
2022-12-22T20:09:23.521Z,98.58
2022-12-22T20:14:30.614Z,98.36
2022-12-22T20:19:37.738Z,98.02
2022-12-22T20:24:45.848Z,97.70
2022-12-22T20:29:53.044Z,97.52
2022-12-22T20:34:58.566Z,98.91
2022-12-22T20:40:06.447Z,98.82
2022-12-22T20:45:14.718Z,99.00
2022-12-22T20:50:26.469Z,98.88
2022-12-22T20:55:33.599Z,99.27
2022-12-22T21:00:42.933Z,99.44
2022-12-22T21:05:50.849Z,99.96
2022-12-22T21:10:58.612Z,99.58
2022-12-22T21:16:07.248Z,98.64
2022-12-22T21:21:14.996Z,98.86
2022-12-22T21:26:28.246Z,98.64
2022-12-22T21:31:35.409Z,99.46
2022-12-22T21:36:43.917Z,99.41
2022-12-22T21:52:50.259Z,99.57
2022-12-22T22:07:46.256Z,97.60
2022-12-22T22:12:54.083Z,97.37
2022-12-22T22:18:06.739Z,96.69
2022-12-22T22:23:16.735Z,97.15
2022-12-22T22:28:23.880Z,97.41
2022-12-22T22:33:31.149Z,97.70
2022-12-22T22:38:39.131Z,97.94
2022-12-22T22:43:49.813Z,98.72
2022-12-22T22:48:58.827Z,99.52
2022-12-22T22:54:06.480Z,100.00
2022-12-22T22:59:16.343Z,100.00
2022-12-22T23:04:23.576Z,100.00
2022-12-22T23:09:31.109Z,100.00
2022-12-22T23:14:38.392Z,100.00
2022-12-22T23:19:48.812Z,100.00
2022-12-22T23:24:55.877Z,100.00
2022-12-22T23:30:03.572Z,100.00
2022-12-22T23:35:09.455Z,100.00
2022-12-22T23:40:50.451Z,100.00
2022-12-22T23:45:44.601Z,100.00
2022-12-22T23:50:52.169Z,99.98
2022-12-22T23:56:02.445Z,99.41
